sensor_id;sensor_type;location;lat;lon;timestamp;temperature;humidity
8633;DHT22;4354;49.832;10.746;2022-08-21T00:01:38;16.40;99.90
8633;DHT22;4354;49.832;10.746;2022-08-21T00:04:06;16.40;99.90
8633;DHT22;4354;49.832;10.746;2022-08-21T00:06:34;16.40;99.90
8633;DHT22;4354;49.832;10.746;2022-08-21T00:09:03;16.30;99.90
8633;DHT22;4354;49.832;10.746;2022-08-21T00:11:33;16.30;99.90
8633;DHT22;4354;49.832;10.746;2022-08-21T00:14:02;16.30;99.90
8633;DHT22;4354;49.832;10.746;2022-08-21T00:16:30;16.20;99.90
8633;DHT22;4354;49.832;10.746;2022-08-21T00:18:56;16.10;99.90
8633;DHT22;4354;49.832;10.746;2022-08-21T00:21:23;16.10;99.90
8633;DHT22;4354;49.832;10.746;2022-08-21T00:23:52;16.10;99.90
8633;DHT22;4354;49.832;10.746;2022-08-21T00:26:19;16.10;99.90
8633;DHT22;4354;49.832;10.746;2022-08-21T00:28:45;16.10;99.90
8633;DHT22;4354;49.832;10.746;2022-08-21T00:31:16;16.10;99.90
8633;DHT22;4354;49.832;10.746;2022-08-21T00:33:43;16.10;99.90
8633;DHT22;4354;49.832;10.746;2022-08-21T00:36:11;16.00;99.90
8633;DHT22;4354;49.832;10.746;2022-08-21T00:38:38;16.00;99.90
8633;DHT22;4354;49.832;10.746;2022-08-21T00:41:07;16.00;99.90
8633;DHT22;4354;49.832;10.746;2022-08-21T00:43:55;16.00;99.90
8633;DHT22;4354;49.832;10.746;2022-08-21T00:46:23;16.00;99.90
8633;DHT22;4354;49.832;10.746;2022-08-21T00:48:54;16.00;99.90
8633;DHT22;4354;49.832;10.746;2022-08-21T00:51:35;16.00;99.90
8633;DHT22;4354;49.832;10.746;2022-08-21T00:54:05;16.00;99.90
8633;DHT22;4354;49.832;10.746;2022-08-21T00:56:46;16.10;99.90
8633;DHT22;4354;49.832;10.746;2022-08-21T00:59:17;16.00;99.90
8633;DHT22;4354;49.832;10.746;2022-08-21T01:01:44;16.10;99.90
8633;DHT22;4354;49.832;10.746;2022-08-21T01:04:11;16.10;99.90
8633;DHT22;4354;49.832;10.746;2022-08-21T01:06:39;16.10;99.90
8633;DHT22;4354;49.832;10.746;2022-08-21T01:09:06;16.00;99.90
8633;DHT22;4354;49.832;10.746;2022-08-21T01:11:33;16.10;99.90
8633;DHT22;4354;49.832;10.746;2022-08-21T01:14:00;16.10;99.90
8633;DHT22;4354;49.832;10.746;2022-08-21T01:16:28;16.10;99.90
8633;DHT22;4354;49.832;10.746;2022-08-21T01:18:55;16.10;99.90
8633;DHT22;4354;49.832;10.746;2022-08-21T01:21:24;16.10;99.90
8633;DHT22;4354;49.832;10.746;2022-08-21T01:23:56;16.10;99.90
8633;DHT22;4354;49.832;10.746;2022-08-21T01:26:28;16.10;99.90
8633;DHT22;4354;49.832;10.746;2022-08-21T01:31:49;16.10;99.90
8633;DHT22;4354;49.832;10.746;2022-08-21T01:34:16;16.10;99.90
8633;DHT22;4354;49.832;10.746;2022-08-21T01:36:45;16.10;99.90
8633;DHT22;4354;49.832;10.746;2022-08-21T01:39:12;16.10;99.90
8633;DHT22;4354;49.832;10.746;2022-08-21T01:41:39;16.10;99.90
8633;DHT22;4354;49.832;10.746;2022-08-21T01:44:06;16.10;99.90
8633;DHT22;4354;49.832;10.746;2022-08-21T01:46:33;16.10;99.90
8633;DHT22;4354;49.832;10.746;2022-08-21T01:49:00;16.10;99.90
8633;DHT22;4354;49.832;10.746;2022-08-21T01:51:27;16.10;99.90
8633;DHT22;4354;49.832;10.746;2022-08-21T01:53:54;16.10;99.90
8633;DHT22;4354;49.832;10.746;2022-08-21T01:56:21;16.10;99.90
8633;DHT22;4354;49.832;10.746;2022-08-21T01:58:48;16.10;99.90
8633;DHT22;4354;49.832;10.746;2022-08-21T02:01:15;16.20;99.90
8633;DHT22;4354;49.832;10.746;2022-08-21T02:03:42;16.10;99.90
8633;DHT22;4354;49.832;10.746;2022-08-21T02:06:14;16.10;99.90
8633;DHT22;4354;49.832;10.746;2022-08-21T02:08:41;16.20;99.90
8633;DHT22;4354;49.832;10.746;2022-08-21T02:11:08;16.20;99.90
8633;DHT22;4354;49.832;10.746;2022-08-21T02:13:35;16.20;99.90
8633;DHT22;4354;49.832;10.746;2022-08-21T02:16:02;16.20;99.90
8633;DHT22;4354;49.832;10.746;2022-08-21T02:18:29;16.20;99.90
8633;DHT22;4354;49.832;10.746;2022-08-21T02:20:56;16.20;99.90
8633;DHT22;4354;49.832;10.746;2022-08-21T02:23:23;16.20;99.90
8633;DHT22;4354;49.832;10.746;2022-08-21T02:25:54;16.20;99.90
8633;DHT22;4354;49.832;10.746;2022-08-21T02:28:21;16.20;99.90
8633;DHT22;4354;49.832;10.746;2022-08-21T02:30:48;16.20;99.90
8633;DHT22;4354;49.832;10.746;2022-08-21T02:33:16;16.20;99.90
8633;DHT22;4354;49.832;10.746;2022-08-21T02:35:45;16.20;99.90
8633;DHT22;4354;49.832;10.746;2022-08-21T02:38:16;16.20;99.90
8633;DHT22;4354;49.832;10.746;2022-08-21T02:40:44;16.20;99.90
8633;DHT22;4354;49.832;10.746;2022-08-21T02:43:18;16.20;99.90
8633;DHT22;4354;49.832;10.746;2022-08-21T02:45:46;16.20;99.90
8633;DHT22;4354;49.832;10.746;2022-08-21T02:48:22;16.10;99.90
8633;DHT22;4354;49.832;10.746;2022-08-21T02:50:56;16.10;99.90
8633;DHT22;4354;49.832;10.746;2022-08-21T02:53:24;16.10;99.90
8633;DHT22;4354;49.832;10.746;2022-08-21T02:55:52;16.10;99.90
8633;DHT22;4354;49.832;10.746;2022-08-21T02:58:25;16.10;99.90
8633;DHT22;4354;49.832;10.746;2022-08-21T03:00:53;16.10;99.90
8633;DHT22;4354;49.832;10.746;2022-08-21T03:03:20;16.00;99.90
8633;DHT22;4354;49.832;10.746;2022-08-21T03:05:47;15.90;99.90
8633;DHT22;4354;49.832;10.746;2022-08-21T03:08:15;15.80;99.90
8633;DHT22;4354;49.832;10.746;2022-08-21T03:10:45;15.80;99.90
8633;DHT22;4354;49.832;10.746;2022-08-21T03:13:14;15.80;99.90
8633;DHT22;4354;49.832;10.746;2022-08-21T03:15:42;15.80;99.90
8633;DHT22;4354;49.832;10.746;2022-08-21T03:18:09;15.80;99.90
8633;DHT22;4354;49.832;10.746;2022-08-21T03:20:38;15.80;99.90
8633;DHT22;4354;49.832;10.746;2022-08-21T03:23:05;15.80;99.90
8633;DHT22;4354;49.832;10.746;2022-08-21T03:25:40;15.80;99.90
8633;DHT22;4354;49.832;10.746;2022-08-21T03:28:11;15.70;99.90
8633;DHT22;4354;49.832;10.746;2022-08-21T03:30:41;15.70;99.90
8633;DHT22;4354;49.832;10.746;2022-08-21T03:33:08;15.70;99.90
8633;DHT22;4354;49.832;10.746;2022-08-21T03:35:38;15.70;99.90
8633;DHT22;4354;49.832;10.746;2022-08-21T03:38:07;15.70;99.90
8633;DHT22;4354;49.832;10.746;2022-08-21T03:40:34;15.70;99.90
8633;DHT22;4354;49.832;10.746;2022-08-21T03:43:01;15.60;99.90
8633;DHT22;4354;49.832;10.746;2022-08-21T03:45:28;15.60;99.90
8633;DHT22;4354;49.832;10.746;2022-08-21T03:50:24;15.60;99.90
8633;DHT22;4354;49.832;10.746;2022-08-21T03:52:51;15.60;99.90
8633;DHT22;4354;49.832;10.746;2022-08-21T03:55:18;15.60;99.90
8633;DHT22;4354;49.832;10.746;2022-08-21T03:57:45;15.60;99.90
8633;DHT22;4354;49.832;10.746;2022-08-21T04:00:14;15.60;99.90
8633;DHT22;4354;49.832;10.746;2022-08-21T04:02:41;15.50;99.90
8633;DHT22;4354;49.832;10.746;2022-08-21T04:05:11;15.50;99.90
8633;DHT22;4354;49.832;10.746;2022-08-21T04:07:39;15.50;99.90
8633;DHT22;4354;49.832;10.746;2022-08-21T04:10:07;15.50;99.90
8633;DHT22;4354;49.832;10.746;2022-08-21T04:12:34;15.50;99.90
8633;DHT22;4354;49.832;10.746;2022-08-21T04:15:01;15.50;99.90
8633;DHT22;4354;49.832;10.746;2022-08-21T04:17:28;15.50;99.90
8633;DHT22;4354;49.832;10.746;2022-08-21T04:19:55;15.50;99.90
8633;DHT22;4354;49.832;10.746;2022-08-21T04:22:22;15.50;99.90
8633;DHT22;4354;49.832;10.746;2022-08-21T04:24:49;15.50;99.90
8633;DHT22;4354;49.832;10.746;2022-08-21T04:27:16;15.50;99.90
8633;DHT22;4354;49.832;10.746;2022-08-21T04:29:43;15.40;99.90
8633;DHT22;4354;49.832;10.746;2022-08-21T04:32:10;15.40;99.90
8633;DHT22;4354;49.832;10.746;2022-08-21T04:34:37;15.40;99.90
8633;DHT22;4354;49.832;10.746;2022-08-21T04:37:04;15.40;99.90
8633;DHT22;4354;49.832;10.746;2022-08-21T04:39:31;15.40;99.90
8633;DHT22;4354;49.832;10.746;2022-08-21T04:41:57;15.40;99.90
8633;DHT22;4354;49.832;10.746;2022-08-21T04:44:24;15.40;99.90
8633;DHT22;4354;49.832;10.746;2022-08-21T04:46:51;15.50;99.90
8633;DHT22;4354;49.832;10.746;2022-08-21T04:49:18;15.50;99.90
8633;DHT22;4354;49.832;10.746;2022-08-21T04:51:45;15.50;99.90
8633;DHT22;4354;49.832;10.746;2022-08-21T04:54:17;15.50;99.90
8633;DHT22;4354;49.832;10.746;2022-08-21T04:56:49;15.50;99.90
8633;DHT22;4354;49.832;10.746;2022-08-21T04:59:20;15.50;99.90
8633;DHT22;4354;49.832;10.746;2022-08-21T05:01:49;15.60;99.90
8633;DHT22;4354;49.832;10.746;2022-08-21T05:04:21;15.60;99.90
8633;DHT22;4354;49.832;10.746;2022-08-21T05:06:49;15.70;99.90
8633;DHT22;4354;49.832;10.746;2022-08-21T05:09:25;15.70;99.90
8633;DHT22;4354;49.832;10.746;2022-08-21T05:12:02;15.70;99.90
8633;DHT22;4354;49.832;10.746;2022-08-21T05:14:31;15.80;99.90
8633;DHT22;4354;49.832;10.746;2022-08-21T05:16:58;15.70;99.90
8633;DHT22;4354;49.832;10.746;2022-08-21T05:19:25;15.70;99.90
8633;DHT22;4354;49.832;10.746;2022-08-21T05:21:52;15.60;99.90
8633;DHT22;4354;49.832;10.746;2022-08-21T05:24:19;15.70;99.90
8633;DHT22;4354;49.832;10.746;2022-08-21T05:26:46;15.60;99.90
8633;DHT22;4354;49.832;10.746;2022-08-21T05:29:15;15.70;99.90
8633;DHT22;4354;49.832;10.746;2022-08-21T05:31:44;15.70;99.90
8633;DHT22;4354;49.832;10.746;2022-08-21T05:34:13;15.80;99.90
8633;DHT22;4354;49.832;10.746;2022-08-21T05:36:42;15.70;99.90
8633;DHT22;4354;49.832;10.746;2022-08-21T05:39:09;15.80;99.90
8633;DHT22;4354;49.832;10.746;2022-08-21T05:41:36;15.80;99.90
8633;DHT22;4354;49.832;10.746;2022-08-21T05:44:03;15.90;99.90
8633;DHT22;4354;49.832;10.746;2022-08-21T05:46:36;16.00;99.90
8633;DHT22;4354;49.832;10.746;2022-08-21T05:49:03;16.00;99.90
8633;DHT22;4354;49.832;10.746;2022-08-21T05:51:30;16.10;99.90
8633;DHT22;4354;49.832;10.746;2022-08-21T05:53:57;16.30;99.90
8633;DHT22;4354;49.832;10.746;2022-08-21T05:56:24;16.40;99.90
8633;DHT22;4354;49.832;10.746;2022-08-21T05:58:51;16.40;99.90
8633;DHT22;4354;49.832;10.746;2022-08-21T06:01:18;16.40;99.90
8633;DHT22;4354;49.832;10.746;2022-08-21T06:03:45;16.30;99.90
8633;DHT22;4354;49.832;10.746;2022-08-21T06:06:12;16.30;99.90
8633;DHT22;4354;49.832;10.746;2022-08-21T06:08:39;16.20;99.90
8633;DHT22;4354;49.832;10.746;2022-08-21T06:11:06;16.20;99.90
8633;DHT22;4354;49.832;10.746;2022-08-21T06:13:34;16.20;99.90
8633;DHT22;4354;49.832;10.746;2022-08-21T06:16:05;16.40;99.90
8633;DHT22;4354;49.832;10.746;2022-08-21T06:18:34;16.50;99.90
8633;DHT22;4354;49.832;10.746;2022-08-21T06:21:01;16.70;99.90
8633;DHT22;4354;49.832;10.746;2022-08-21T06:23:28;16.80;99.90
8633;DHT22;4354;49.832;10.746;2022-08-21T06:25:59;16.80;99.90
8633;DHT22;4354;49.832;10.746;2022-08-21T06:28:26;16.90;99.90
8633;DHT22;4354;49.832;10.746;2022-08-21T06:30:54;16.90;99.90
8633;DHT22;4354;49.832;10.746;2022-08-21T06:33:21;16.90;99.90
8633;DHT22;4354;49.832;10.746;2022-08-21T06:35:51;17.10;99.90
8633;DHT22;4354;49.832;10.746;2022-08-21T06:38:18;17.00;99.90
8633;DHT22;4354;49.832;10.746;2022-08-21T06:40:46;17.10;99.90
8633;DHT22;4354;49.832;10.746;2022-08-21T06:43:16;17.20;99.90
8633;DHT22;4354;49.832;10.746;2022-08-21T06:45:46;17.10;99.90
8633;DHT22;4354;49.832;10.746;2022-08-21T06:48:13;17.10;99.90
8633;DHT22;4354;49.832;10.746;2022-08-21T06:50:46;17.10;99.90
8633;DHT22;4354;49.832;10.746;2022-08-21T06:53:16;17.20;99.90
8633;DHT22;4354;49.832;10.746;2022-08-21T06:55:43;17.30;99.90
8633;DHT22;4354;49.832;10.746;2022-08-21T06:58:11;17.50;99.90
8633;DHT22;4354;49.832;10.746;2022-08-21T07:00:40;17.70;99.90
8633;DHT22;4354;49.832;10.746;2022-08-21T07:03:26;17.80;99.90
8633;DHT22;4354;49.832;10.746;2022-08-21T07:05:54;18.00;99.90
8633;DHT22;4354;49.832;10.746;2022-08-21T07:08:23;18.20;99.90
8633;DHT22;4354;49.832;10.746;2022-08-21T07:10:52;18.30;99.90
8633;DHT22;4354;49.832;10.746;2022-08-21T07:13:19;18.50;99.90
8633;DHT22;4354;49.832;10.746;2022-08-21T07:15:46;18.60;99.90
8633;DHT22;4354;49.832;10.746;2022-08-21T07:18:13;18.60;99.90
8633;DHT22;4354;49.832;10.746;2022-08-21T07:20:40;18.70;99.90
8633;DHT22;4354;49.832;10.746;2022-08-21T07:23:32;18.50;99.90
8633;DHT22;4354;49.832;10.746;2022-08-21T07:25:58;18.50;99.90
8633;DHT22;4354;49.832;10.746;2022-08-21T07:28:30;18.50;99.90
8633;DHT22;4354;49.832;10.746;2022-08-21T07:30:59;18.40;99.90
8633;DHT22;4354;49.832;10.746;2022-08-21T07:33:29;18.30;99.90
8633;DHT22;4354;49.832;10.746;2022-08-21T07:35:57;18.50;99.90
8633;DHT22;4354;49.832;10.746;2022-08-21T07:38:25;18.60;99.90
8633;DHT22;4354;49.832;10.746;2022-08-21T07:40:55;18.50;99.90
8633;DHT22;4354;49.832;10.746;2022-08-21T07:43:26;18.50;99.90
8633;DHT22;4354;49.832;10.746;2022-08-21T07:45:53;18.70;99.90
8633;DHT22;4354;49.832;10.746;2022-08-21T07:48:21;18.60;99.90
8633;DHT22;4354;49.832;10.746;2022-08-21T07:50:49;18.60;99.90
8633;DHT22;4354;49.832;10.746;2022-08-21T07:53:16;18.70;99.90
8633;DHT22;4354;49.832;10.746;2022-08-21T07:55:43;18.80;99.90
8633;DHT22;4354;49.832;10.746;2022-08-21T07:58:10;18.90;99.90
8633;DHT22;4354;49.832;10.746;2022-08-21T08:00:37;19.00;99.90
8633;DHT22;4354;49.832;10.746;2022-08-21T08:03:05;19.10;99.90
8633;DHT22;4354;49.832;10.746;2022-08-21T08:05:33;19.10;99.90
8633;DHT22;4354;49.832;10.746;2022-08-21T08:08:02;19.20;99.90
8633;DHT22;4354;49.832;10.746;2022-08-21T08:10:29;19.40;99.90
8633;DHT22;4354;49.832;10.746;2022-08-21T08:12:56;19.60;99.90
8633;DHT22;4354;49.832;10.746;2022-08-21T08:15:25;19.70;99.90
8633;DHT22;4354;49.832;10.746;2022-08-21T08:17:53;19.60;99.90
8633;DHT22;4354;49.832;10.746;2022-08-21T08:20:21;19.60;99.90
8633;DHT22;4354;49.832;10.746;2022-08-21T08:22:49;19.80;99.90
8633;DHT22;4354;49.832;10.746;2022-08-21T08:25:18;19.70;99.90
8633;DHT22;4354;49.832;10.746;2022-08-21T08:27:45;19.60;99.90
8633;DHT22;4354;49.832;10.746;2022-08-21T08:30:14;19.70;99.90
8633;DHT22;4354;49.832;10.746;2022-08-21T08:32:42;19.80;99.90
8633;DHT22;4354;49.832;10.746;2022-08-21T08:35:09;20.00;99.90
8633;DHT22;4354;49.832;10.746;2022-08-21T08:37:38;20.10;99.90
8633;DHT22;4354;49.832;10.746;2022-08-21T08:40:14;20.40;99.90
8633;DHT22;4354;49.832;10.746;2022-08-21T08:42:41;20.60;99.90
8633;DHT22;4354;49.832;10.746;2022-08-21T08:45:12;20.90;99.90
8633;DHT22;4354;49.832;10.746;2022-08-21T08:47:46;21.20;99.90
8633;DHT22;4354;49.832;10.746;2022-08-21T08:50:22;21.30;99.90
8633;DHT22;4354;49.832;10.746;2022-08-21T08:53:02;21.40;99.90
8633;DHT22;4354;49.832;10.746;2022-08-21T08:55:37;21.70;99.90
8633;DHT22;4354;49.832;10.746;2022-08-21T08:58:04;22.00;99.90
8633;DHT22;4354;49.832;10.746;2022-08-21T09:00:32;22.90;99.90
8633;DHT22;4354;49.832;10.746;2022-08-21T09:03:02;24.80;99.90
8633;DHT22;4354;49.832;10.746;2022-08-21T09:05:47;26.60;99.90
8633;DHT22;4354;49.832;10.746;2022-08-21T09:20:17;25.80;99.90
8633;DHT22;4354;49.832;10.746;2022-08-21T09:28:23;28.50;99.90
8633;DHT22;4354;49.832;10.746;2022-08-21T09:30:54;28.80;99.90
8633;DHT22;4354;49.832;10.746;2022-08-21T09:33:22;29.40;99.90
8633;DHT22;4354;49.832;10.746;2022-08-21T09:35:54;30.90;99.90
8633;DHT22;4354;49.832;10.746;2022-08-21T09:38:30;31.70;99.80
8633;DHT22;4354;49.832;10.746;2022-08-21T09:41:04;32.40;97.10
8633;DHT22;4354;49.832;10.746;2022-08-21T09:43:33;32.00;95.80
8633;DHT22;4354;49.832;10.746;2022-08-21T09:46:12;31.50;94.50
8633;DHT22;4354;49.832;10.746;2022-08-21T09:48:42;32.20;93.80
8633;DHT22;4354;49.832;10.746;2022-08-21T09:51:17;33.60;90.90
8633;DHT22;4354;49.832;10.746;2022-08-21T09:54:26;34.40;89.10
8633;DHT22;4354;49.832;10.746;2022-08-21T09:56:56;33.90;81.80
8633;DHT22;4354;49.832;10.746;2022-08-21T09:59:43;34.30;84.60
8633;DHT22;4354;49.832;10.746;2022-08-21T10:02:29;35.90;81.60
8633;DHT22;4354;49.832;10.746;2022-08-21T10:05:03;37.10;73.90
8633;DHT22;4354;49.832;10.746;2022-08-21T10:07:31;37.50;71.20
8633;DHT22;4354;49.832;10.746;2022-08-21T10:10:15;38.20;69.00
8633;DHT22;4354;49.832;10.746;2022-08-21T10:15:33;37.30;64.70
8633;DHT22;4354;49.832;10.746;2022-08-21T10:37:25;34.40;66.50
8633;DHT22;4354;49.832;10.746;2022-08-21T10:42:49;35.40;66.40
8633;DHT22;4354;49.832;10.746;2022-08-21T10:47:58;35.50;64.30
8633;DHT22;4354;49.832;10.746;2022-08-21T10:50:31;36.30;62.90
8633;DHT22;4354;49.832;10.746;2022-08-21T10:56:05;35.00;66.20
8633;DHT22;4354;49.832;10.746;2022-08-21T10:58:45;35.50;61.90
8633;DHT22;4354;49.832;10.746;2022-08-21T11:01:30;35.50;63.20
8633;DHT22;4354;49.832;10.746;2022-08-21T11:04:18;34.70;61.70
8633;DHT22;4354;49.832;10.746;2022-08-21T11:07:33;35.10;65.00
8633;DHT22;4354;49.832;10.746;2022-08-21T11:10:24;36.00;62.40
8633;DHT22;4354;49.832;10.746;2022-08-21T11:12:54;35.70;62.10
8633;DHT22;4354;49.832;10.746;2022-08-21T11:15:43;35.90;61.00
8633;DHT22;4354;49.832;10.746;2022-08-21T11:18:27;34.70;62.60
8633;DHT22;4354;49.832;10.746;2022-08-21T11:24:35;34.60;65.70
8633;DHT22;4354;49.832;10.746;2022-08-21T11:29:37;34.10;64.30
8633;DHT22;4354;49.832;10.746;2022-08-21T11:38:17;32.50;65.00
8633;DHT22;4354;49.832;10.746;2022-08-21T11:44:33;32.10;66.20
8633;DHT22;4354;49.832;10.746;2022-08-21T11:47:06;32.40;67.10
8633;DHT22;4354;49.832;10.746;2022-08-21T11:52:12;32.20;65.60
8633;DHT22;4354;49.832;10.746;2022-08-21T11:54:44;32.20;65.10
8633;DHT22;4354;49.832;10.746;2022-08-21T12:02:20;31.80;65.70
8633;DHT22;4354;49.832;10.746;2022-08-21T12:05:03;30.90;66.90
8633;DHT22;4354;49.832;10.746;2022-08-21T12:10:05;30.90;64.80
8633;DHT22;4354;49.832;10.746;2022-08-21T12:12:36;30.90;65.90
8633;DHT22;4354;49.832;10.746;2022-08-21T12:23:23;30.70;62.90
8633;DHT22;4354;49.832;10.746;2022-08-21T12:26:09;30.50;63.90
8633;DHT22;4354;49.832;10.746;2022-08-21T12:28:37;29.70;64.70
8633;DHT22;4354;49.832;10.746;2022-08-21T12:31:17;29.40;65.60
8633;DHT22;4354;49.832;10.746;2022-08-21T12:33:52;29.00;66.80
8633;DHT22;4354;49.832;10.746;2022-08-21T12:36:24;28.80;66.10
8633;DHT22;4354;49.832;10.746;2022-08-21T12:38:57;28.80;66.90
8633;DHT22;4354;49.832;10.746;2022-08-21T12:41:34;28.60;65.90
8633;DHT22;4354;49.832;10.746;2022-08-21T12:44:09;28.30;67.20
8633;DHT22;4354;49.832;10.746;2022-08-21T12:47:15;28.30;67.80
8633;DHT22;4354;49.832;10.746;2022-08-21T12:50:20;28.70;68.30
8633;DHT22;4354;49.832;10.746;2022-08-21T12:55:46;28.40;67.00
8633;DHT22;4354;49.832;10.746;2022-08-21T12:58:21;28.40;68.50
8633;DHT22;4354;49.832;10.746;2022-08-21T13:01:07;28.10;65.30
8633;DHT22;4354;49.832;10.746;2022-08-21T13:03:36;28.30;66.40
8633;DHT22;4354;49.832;10.746;2022-08-21T13:06:04;28.40;65.20
8633;DHT22;4354;49.832;10.746;2022-08-21T13:08:33;28.30;66.90
8633;DHT22;4354;49.832;10.746;2022-08-21T13:11:09;28.20;66.70
8633;DHT22;4354;49.832;10.746;2022-08-21T13:13:41;28.20;65.60
8633;DHT22;4354;49.832;10.746;2022-08-21T13:16:24;27.70;64.70
8633;DHT22;4354;49.832;10.746;2022-08-21T13:18:57;27.90;66.50
8633;DHT22;4354;49.832;10.746;2022-08-21T13:21:34;27.90;63.00
8633;DHT22;4354;49.832;10.746;2022-08-21T13:24:19;27.90;62.60
8633;DHT22;4354;49.832;10.746;2022-08-21T13:27:29;28.00;63.00
8633;DHT22;4354;49.832;10.746;2022-08-21T13:30:22;27.80;61.80
8633;DHT22;4354;49.832;10.746;2022-08-21T13:32:55;27.90;61.70
8633;DHT22;4354;49.832;10.746;2022-08-21T13:38:38;27.80;61.30
8633;DHT22;4354;49.832;10.746;2022-08-21T13:41:24;28.00;61.90
8633;DHT22;4354;49.832;10.746;2022-08-21T13:44:05;27.70;58.40
8633;DHT22;4354;49.832;10.746;2022-08-21T13:46:59;27.70;59.20
8633;DHT22;4354;49.832;10.746;2022-08-21T13:49:38;28.00;59.80
8633;DHT22;4354;49.832;10.746;2022-08-21T13:52:28;28.20;59.90
8633;DHT22;4354;49.832;10.746;2022-08-21T13:55:11;28.40;59.10
8633;DHT22;4354;49.832;10.746;2022-08-21T13:58:02;28.50;57.60
8633;DHT22;4354;49.832;10.746;2022-08-21T14:00:42;28.60;57.20
8633;DHT22;4354;49.832;10.746;2022-08-21T14:03:13;28.70;56.70
8633;DHT22;4354;49.832;10.746;2022-08-21T14:05:55;28.70;58.30
8633;DHT22;4354;49.832;10.746;2022-08-21T14:08:49;28.70;57.30
8633;DHT22;4354;49.832;10.746;2022-08-21T14:11:32;28.40;55.40
8633;DHT22;4354;49.832;10.746;2022-08-21T14:14:22;28.30;56.90
8633;DHT22;4354;49.832;10.746;2022-08-21T14:16:57;28.20;55.60
8633;DHT22;4354;49.832;10.746;2022-08-21T14:19:56;28.20;54.40
8633;DHT22;4354;49.832;10.746;2022-08-21T14:22:45;28.30;56.40
8633;DHT22;4354;49.832;10.746;2022-08-21T14:30:40;28.50;55.40
8633;DHT22;4354;49.832;10.746;2022-08-21T14:33:29;28.60;57.00
8633;DHT22;4354;49.832;10.746;2022-08-21T14:36:02;28.30;51.70
8633;DHT22;4354;49.832;10.746;2022-08-21T14:38:45;28.40;52.40
8633;DHT22;4354;49.832;10.746;2022-08-21T14:41:22;28.20;53.90
8633;DHT22;4354;49.832;10.746;2022-08-21T14:43:58;27.90;54.20
8633;DHT22;4354;49.832;10.746;2022-08-21T14:46:37;27.70;54.70
8633;DHT22;4354;49.832;10.746;2022-08-21T14:49:27;27.60;56.60
8633;DHT22;4354;49.832;10.746;2022-08-21T14:52:04;27.40;56.50
8633;DHT22;4354;49.832;10.746;2022-08-21T14:54:36;27.20;56.40
8633;DHT22;4354;49.832;10.746;2022-08-21T14:57:14;27.00;57.80
8633;DHT22;4354;49.832;10.746;2022-08-21T14:59:46;26.70;58.00
8633;DHT22;4354;49.832;10.746;2022-08-21T15:02:28;26.50;59.70
8633;DHT22;4354;49.832;10.746;2022-08-21T15:05:11;26.30;60.40
8633;DHT22;4354;49.832;10.746;2022-08-21T15:08:01;26.10;61.70
8633;DHT22;4354;49.832;10.746;2022-08-21T15:10:38;25.90;62.80
8633;DHT22;4354;49.832;10.746;2022-08-21T15:13:34;25.70;64.50
8633;DHT22;4354;49.832;10.746;2022-08-21T15:16:07;25.80;65.60
8633;DHT22;4354;49.832;10.746;2022-08-21T15:18:41;25.90;64.00
8633;DHT22;4354;49.832;10.746;2022-08-21T15:21:11;26.00;64.00
8633;DHT22;4354;49.832;10.746;2022-08-21T15:23:39;26.20;63.80
8633;DHT22;4354;49.832;10.746;2022-08-21T15:26:12;26.20;62.40
8633;DHT22;4354;49.832;10.746;2022-08-21T15:28:50;26.30;63.10
8633;DHT22;4354;49.832;10.746;2022-08-21T15:31:27;26.40;62.90
8633;DHT22;4354;49.832;10.746;2022-08-21T15:34:05;26.50;63.40
8633;DHT22;4354;49.832;10.746;2022-08-21T15:36:43;26.50;62.90
8633;DHT22;4354;49.832;10.746;2022-08-21T15:39:15;26.60;61.80
8633;DHT22;4354;49.832;10.746;2022-08-21T15:41:59;26.60;60.40
8633;DHT22;4354;49.832;10.746;2022-08-21T15:44:37;26.50;61.50
8633;DHT22;4354;49.832;10.746;2022-08-21T15:47:19;26.30;61.60
8633;DHT22;4354;49.832;10.746;2022-08-21T15:49:52;26.10;62.30
8633;DHT22;4354;49.832;10.746;2022-08-21T15:52:22;25.90;62.80
8633;DHT22;4354;49.832;10.746;2022-08-21T15:54:57;25.70;64.50
8633;DHT22;4354;49.832;10.746;2022-08-21T15:57:29;25.60;65.90
8633;DHT22;4354;49.832;10.746;2022-08-21T16:03:07;25.60;63.70
8633;DHT22;4354;49.832;10.746;2022-08-21T16:05:46;25.60;63.20
8633;DHT22;4354;49.832;10.746;2022-08-21T16:08:47;25.80;62.90
8633;DHT22;4354;49.832;10.746;2022-08-21T16:11:32;25.80;62.20
8633;DHT22;4354;49.832;10.746;2022-08-21T16:14:11;26.00;62.50
8633;DHT22;4354;49.832;10.746;2022-08-21T16:17:01;26.10;61.20
8633;DHT22;4354;49.832;10.746;2022-08-21T16:19:44;26.20;59.70
8633;DHT22;4354;49.832;10.746;2022-08-21T16:22:32;26.20;62.50
8633;DHT22;4354;49.832;10.746;2022-08-21T16:25:30;26.30;60.30
8633;DHT22;4354;49.832;10.746;2022-08-21T16:28:43;26.30;59.90
8633;DHT22;4354;49.832;10.746;2022-08-21T16:31:19;26.30;61.80
8633;DHT22;4354;49.832;10.746;2022-08-21T16:33:59;26.30;59.20
8633;DHT22;4354;49.832;10.746;2022-08-21T16:36:36;26.30;58.60
8633;DHT22;4354;49.832;10.746;2022-08-21T16:39:32;26.30;58.70
8633;DHT22;4354;49.832;10.746;2022-08-21T16:42:12;26.10;58.50
8633;DHT22;4354;49.832;10.746;2022-08-21T16:44:53;26.00;61.20
8633;DHT22;4354;49.832;10.746;2022-08-21T16:47:25;25.90;61.50
8633;DHT22;4354;49.832;10.746;2022-08-21T16:50:04;25.80;59.80
8633;DHT22;4354;49.832;10.746;2022-08-21T16:52:40;25.80;58.90
8633;DHT22;4354;49.832;10.746;2022-08-21T16:55:16;25.70;61.80
8633;DHT22;4354;49.832;10.746;2022-08-21T16:57:46;25.60;61.90
8633;DHT22;4354;49.832;10.746;2022-08-21T17:00:21;25.50;61.80
8633;DHT22;4354;49.832;10.746;2022-08-21T17:02:54;25.30;62.30
8633;DHT22;4354;49.832;10.746;2022-08-21T17:05:27;25.20;62.20
8633;DHT22;4354;49.832;10.746;2022-08-21T17:07:58;25.10;62.70
8633;DHT22;4354;49.832;10.746;2022-08-21T17:10:31;25.00;62.30
8633;DHT22;4354;49.832;10.746;2022-08-21T17:13:03;25.00;61.70
8633;DHT22;4354;49.832;10.746;2022-08-21T17:15:38;25.00;62.20
8633;DHT22;4354;49.832;10.746;2022-08-21T17:18:21;24.90;62.30
8633;DHT22;4354;49.832;10.746;2022-08-21T17:20:57;24.80;64.60
8633;DHT22;4354;49.832;10.746;2022-08-21T17:23:40;24.70;64.30
8633;DHT22;4354;49.832;10.746;2022-08-21T17:26:13;24.60;62.40
8633;DHT22;4354;49.832;10.746;2022-08-21T17:29:00;24.60;62.30
8633;DHT22;4354;49.832;10.746;2022-08-21T17:31:30;24.40;61.30
8633;DHT22;4354;49.832;10.746;2022-08-21T17:34:02;24.40;60.80
8633;DHT22;4354;49.832;10.746;2022-08-21T17:36:35;24.30;62.00
8633;DHT22;4354;49.832;10.746;2022-08-21T17:39:08;24.20;64.20
8633;DHT22;4354;49.832;10.746;2022-08-21T17:41:56;24.00;66.40
8633;DHT22;4354;49.832;10.746;2022-08-21T17:44:50;23.90;63.50
8633;DHT22;4354;49.832;10.746;2022-08-21T17:47:29;23.70;65.20
8633;DHT22;4354;49.832;10.746;2022-08-21T17:50:03;23.50;67.50
8633;DHT22;4354;49.832;10.746;2022-08-21T17:52:38;23.40;68.40
8633;DHT22;4354;49.832;10.746;2022-08-21T17:55:06;23.10;69.00
8633;DHT22;4354;49.832;10.746;2022-08-21T17:57:36;23.00;69.60
8633;DHT22;4354;49.832;10.746;2022-08-21T18:00:13;22.80;70.40
8633;DHT22;4354;49.832;10.746;2022-08-21T18:02:46;22.60;72.60
8633;DHT22;4354;49.832;10.746;2022-08-21T18:05:17;22.40;73.10